createdAt,value
2023-05-14T00:00:30.346Z,9.36
2023-05-14T00:02:59.132Z,9.02
2023-05-14T00:05:27.560Z,9.11
2023-05-14T00:07:54.301Z,9.52
2023-05-14T00:10:20.858Z,9.13
2023-05-14T00:12:47.429Z,9.90
2023-05-14T00:15:15.937Z,9.77
2023-05-14T00:17:44.521Z,10.10
2023-05-14T00:20:13.374Z,10.15
2023-05-14T00:22:41.701Z,9.91
2023-05-14T00:25:10.305Z,9.82
2023-05-14T00:27:37.964Z,9.86
2023-05-14T00:30:05.477Z,9.48
2023-05-14T00:32:33.118Z,10.51
2023-05-14T00:35:00.670Z,10.00
2023-05-14T00:37:29.530Z,10.39
2023-05-14T00:39:57.862Z,10.66
2023-05-14T00:42:27.026Z,11.03
2023-05-14T00:44:54.020Z,10.83
2023-05-14T00:47:21.670Z,10.78
2023-05-14T00:49:48.302Z,10.10
2023-05-14T00:52:14.809Z,10.12
2023-05-14T00:54:43.424Z,9.95
2023-05-14T00:57:11.010Z,10.40
2023-05-14T00:59:38.597Z,10.55
2023-05-14T01:02:06.194Z,10.41
2023-05-14T01:04:33.072Z,10.62
2023-05-14T01:07:00.361Z,10.01
2023-05-14T01:09:27.025Z,10.89
2023-05-14T01:11:54.532Z,11.69
2023-05-14T01:14:23.252Z,11.25
2023-05-14T01:16:50.927Z,10.77
2023-05-14T01:19:18.349Z,11.37
2023-05-14T01:21:45.910Z,12.07
2023-05-14T01:24:15.030Z,11.78
2023-05-14T01:26:42.084Z,11.98
2023-05-14T01:29:08.683Z,11.78
2023-05-14T01:31:35.443Z,11.81
2023-05-14T01:34:03.001Z,12.11
2023-05-14T01:36:30.567Z,11.82
2023-05-14T01:38:58.180Z,11.85
2023-05-14T01:41:27.261Z,11.93
2023-05-14T01:43:55.347Z,11.61
2023-05-14T01:46:23.009Z,11.62
2023-05-14T01:48:51.549Z,11.67
2023-05-14T01:51:19.131Z,11.74
2023-05-14T01:53:47.743Z,11.82
2023-05-14T01:56:14.338Z,11.68
2023-05-14T01:58:42.911Z,12.42
2023-05-14T02:01:10.550Z,12.47
2023-05-14T02:03:38.144Z,12.53
2023-05-14T02:06:07.083Z,12.36
2023-05-14T02:08:35.336Z,11.73
2023-05-14T02:11:02.947Z,11.61
2023-05-14T02:13:31.527Z,11.86
2023-05-14T02:16:00.295Z,11.82
2023-05-14T02:18:27.779Z,11.85
2023-05-14T02:20:56.710Z,11.91
2023-05-14T02:23:34.080Z,11.89
2023-05-14T02:26:05.585Z,12.01
2023-05-14T02:28:33.150Z,11.64
2023-05-14T02:31:00.806Z,11.70
2023-05-14T02:33:28.387Z,11.98
2023-05-14T02:35:55.975Z,11.67
2023-05-14T02:38:23.570Z,11.47
2023-05-14T02:40:51.167Z,12.19
2023-05-14T02:43:18.725Z,12.10
2023-05-14T02:45:46.316Z,11.28
2023-05-14T02:48:13.957Z,11.52
2023-05-14T02:50:41.507Z,11.81
2023-05-14T02:53:10.100Z,11.79
2023-05-14T02:55:36.689Z,12.19
2023-05-14T02:58:03.259Z,11.96
2023-05-14T03:00:31.874Z,11.78
2023-05-14T03:03:00.495Z,11.70
2023-05-14T03:05:29.080Z,11.05
2023-05-14T03:07:56.664Z,10.83
2023-05-14T03:10:24.584Z,11.49
2023-05-14T03:12:51.834Z,10.93
2023-05-14T03:15:20.416Z,10.69
2023-05-14T03:17:47.033Z,19.35
2023-05-14T03:20:14.660Z,11.34
2023-05-14T03:22:43.214Z,11.50
2023-05-14T03:25:09.755Z,11.09
2023-05-14T03:27:36.187Z,11.32
2023-05-14T03:30:04.000Z,10.67
2023-05-14T03:32:31.602Z,10.77
2023-05-14T03:34:59.172Z,11.35
2023-05-14T03:37:27.759Z,11.18
2023-05-14T03:39:56.355Z,12.17
2023-05-14T03:42:24.956Z,10.82
2023-05-14T03:44:52.549Z,10.34
2023-05-14T03:47:20.162Z,10.51
2023-05-14T03:49:48.803Z,10.44
2023-05-14T03:52:15.402Z,10.43
2023-05-14T03:54:46.028Z,10.73
2023-05-14T03:57:14.776Z,10.45
2023-05-14T03:59:41.264Z,11.12
2023-05-14T04:02:10.045Z,11.08
2023-05-14T04:04:37.452Z,10.67
2023-05-14T04:07:04.985Z,10.85
2023-05-14T04:09:33.693Z,10.60
2023-05-14T04:12:02.179Z,10.88
2023-05-14T04:14:30.778Z,10.69
2023-05-14T04:17:00.167Z,11.15
2023-05-14T04:19:29.256Z,10.82
2023-05-14T04:21:57.554Z,10.71
2023-05-14T04:24:25.167Z,10.20
2023-05-14T04:26:53.755Z,10.54
2023-05-14T04:29:22.716Z,10.29
2023-05-14T04:31:50.958Z,10.57
2023-05-14T04:34:18.530Z,10.34
2023-05-14T04:36:47.157Z,10.19
2023-05-14T04:39:14.723Z,10.21
2023-05-14T04:41:43.306Z,10.49
2023-05-14T04:44:09.800Z,10.41
2023-05-14T04:46:36.511Z,9.95
2023-05-14T04:49:03.475Z,10.53
2023-05-14T04:51:29.970Z,10.52
2023-05-14T04:53:56.413Z,10.39
2023-05-14T04:56:24.832Z,10.12
2023-05-14T04:58:51.481Z,10.45
2023-05-14T05:01:20.029Z,9.94
2023-05-14T05:03:47.679Z,10.28
2023-05-14T05:06:16.217Z,10.65
2023-05-14T05:08:45.141Z,10.26
2023-05-14T05:11:13.429Z,9.94
2023-05-14T05:13:41.059Z,9.72
2023-05-14T05:16:07.728Z,9.82
2023-05-14T05:18:36.341Z,10.79
2023-05-14T05:21:03.899Z,9.72
2023-05-14T05:23:31.469Z,9.63
2023-05-14T05:25:59.070Z,9.27
2023-05-14T05:28:26.653Z,9.20
2023-05-14T05:30:55.247Z,8.89
2023-05-14T05:33:23.812Z,9.22
2023-05-14T05:35:51.446Z,8.79
2023-05-14T05:38:19.032Z,8.99
2023-05-14T05:40:46.612Z,8.76
2023-05-14T05:43:13.212Z,9.11
2023-05-14T05:45:39.803Z,9.02
2023-05-14T05:48:07.472Z,8.87
2023-05-14T05:50:33.963Z,8.80
2023-05-14T05:53:01.611Z,9.21
2023-05-14T05:55:28.462Z,9.20
2023-05-14T05:57:55.801Z,11.73
2023-05-14T06:00:25.218Z,10.92
2023-05-14T06:02:54.033Z,9.16
2023-05-14T06:05:22.988Z,9.01
2023-05-14T06:07:50.155Z,8.62
2023-05-14T06:10:18.761Z,8.30
2023-05-14T06:12:47.545Z,8.38
2023-05-14T06:15:15.151Z,8.87
2023-05-14T06:17:42.761Z,8.94
2023-05-14T06:20:11.331Z,8.77
2023-05-14T06:22:39.955Z,9.02
2023-05-14T06:25:07.546Z,9.35
2023-05-14T06:27:36.152Z,9.39
2023-05-14T06:30:03.007Z,10.21
2023-05-14T06:32:30.370Z,9.27
2023-05-14T06:34:57.915Z,9.31
2023-05-14T06:37:24.517Z,9.49
2023-05-14T06:39:51.125Z,9.41
2023-05-14T06:42:18.043Z,9.46
2023-05-14T06:44:45.292Z,9.18
2023-05-14T06:47:12.869Z,9.00
2023-05-14T06:49:40.467Z,9.45
2023-05-14T06:52:06.943Z,9.42
2023-05-14T06:54:33.441Z,9.09
2023-05-14T06:56:59.918Z,9.57
2023-05-14T06:59:26.401Z,9.03
2023-05-14T07:01:54.479Z,9.25
2023-05-14T07:04:22.057Z,9.41
2023-05-14T07:06:49.590Z,9.38
2023-05-14T07:09:17.215Z,9.39
2023-05-14T07:11:44.004Z,9.30
2023-05-14T07:14:10.484Z,9.19
2023-05-14T07:16:37.004Z,9.13
2023-05-14T07:19:03.592Z,8.91
2023-05-14T07:26:56.498Z,8.69
2023-05-14T07:32:31.227Z,8.60
2023-05-14T07:43:46.359Z,7.60
2023-05-14T07:45:50.037Z,7.40
2023-05-14T07:48:21.940Z,7.31
2023-05-14T07:50:51.215Z,6.70
2023-05-14T07:53:21.186Z,6.23
2023-05-14T07:55:49.431Z,6.86
2023-05-14T07:58:18.274Z,7.59
2023-05-14T08:00:47.653Z,7.32
2023-05-14T08:03:17.362Z,7.66
2023-05-14T08:05:45.843Z,7.38
2023-05-14T08:08:13.429Z,6.98
2023-05-14T08:10:41.063Z,7.30
2023-05-14T08:13:09.636Z,7.31
2023-05-14T08:15:38.200Z,6.38
2023-05-14T08:18:07.710Z,6.58
2023-05-14T08:20:34.442Z,6.34
2023-05-14T08:23:05.236Z,6.50
2023-05-14T08:25:33.996Z,6.51
2023-05-14T08:28:03.221Z,6.37
2023-05-14T08:30:31.857Z,6.44
2023-05-14T08:32:59.472Z,5.62
2023-05-14T08:35:39.185Z,5.31
2023-05-14T08:38:08.026Z,5.12
2023-05-14T08:40:42.246Z,5.13
2023-05-14T08:43:09.888Z,5.44
2023-05-14T08:45:37.494Z,4.96
2023-05-14T08:48:05.130Z,4.94
2023-05-14T08:50:32.704Z,4.15
2023-05-14T08:53:00.249Z,3.25
2023-05-14T08:55:30.584Z,3.39
2023-05-14T08:58:03.515Z,3.36
2023-05-14T09:00:33.975Z,3.29
2023-05-14T09:03:03.045Z,3.17
2023-05-14T09:05:31.274Z,3.13
2023-05-14T09:07:58.812Z,3.86
2023-05-14T09:10:26.650Z,4.15
2023-05-14T09:12:54.036Z,4.59
2023-05-14T09:15:23.369Z,3.74
2023-05-14T09:17:52.273Z,3.35
2023-05-14T09:20:20.822Z,3.41
2023-05-14T09:22:49.442Z,3.66
2023-05-14T09:25:18.040Z,4.02
2023-05-14T09:27:46.813Z,4.02
2023-05-14T09:30:14.192Z,4.53
2023-05-14T09:35:25.162Z,4.72
2023-05-14T09:37:52.025Z,4.75
2023-05-14T09:46:14.032Z,4.56
2023-05-14T09:48:41.703Z,4.66
2023-05-14T09:51:12.489Z,4.79
2023-05-14T09:53:40.867Z,4.69
2023-05-14T09:59:01.050Z,4.02
2023-05-14T10:04:33.125Z,4.91
2023-05-14T10:07:20.354Z,4.77
2023-05-14T10:10:00.062Z,4.72
2023-05-14T10:26:03.613Z,4.39
2023-05-14T10:34:39.725Z,4.69
2023-05-14T10:59:13.197Z,4.59
2023-05-14T11:28:56.163Z,4.54
2023-05-14T11:31:31.856Z,4.65
2023-05-14T12:05:25.156Z,2.56
2023-05-14T12:07:54.328Z,2.35
2023-05-14T12:13:27.803Z,2.52
2023-05-14T12:15:57.349Z,2.87
2023-05-14T12:18:32.428Z,2.71
2023-05-14T12:21:01.527Z,2.66
2023-05-14T12:23:30.257Z,2.54
2023-05-14T12:25:59.769Z,2.75
2023-05-14T12:28:28.298Z,2.78
2023-05-14T12:30:57.824Z,2.46
2023-05-14T12:33:26.653Z,2.65
2023-05-14T12:38:42.162Z,2.78
2023-05-14T12:49:33.355Z,2.68
2023-05-14T12:52:19.486Z,2.52
2023-05-14T12:57:27.362Z,2.13
2023-05-14T12:59:55.967Z,2.16
2023-05-14T13:02:25.400Z,2.19
2023-05-14T13:07:39.985Z,2.36
2023-05-14T13:10:09.347Z,2.34
2023-05-14T13:12:36.066Z,2.10
2023-05-14T13:15:07.942Z,1.94
2023-05-14T13:17:35.262Z,2.10
2023-05-14T13:20:06.617Z,2.10
2023-05-14T13:23:53.384Z,2.06
2023-05-14T13:30:58.455Z,1.84
2023-05-14T13:33:27.502Z,1.70
2023-05-14T13:36:47.742Z,1.61
2023-05-14T13:38:46.363Z,1.71
2023-05-14T13:41:13.932Z,1.86
2023-05-14T13:43:43.758Z,1.89
2023-05-14T13:46:14.323Z,1.88
2023-05-14T13:48:42.763Z,2.04
2023-05-14T13:56:21.662Z,1.78
2023-05-14T13:58:50.846Z,1.91
2023-05-14T14:01:18.954Z,2.01
2023-05-14T14:03:46.387Z,1.97
2023-05-14T14:08:04.512Z,2.00
2023-05-14T14:09:15.152Z,1.82
2023-05-14T14:11:42.656Z,1.87
2023-05-14T14:14:11.156Z,1.90
2023-05-14T14:16:39.966Z,1.86
2023-05-14T14:19:11.432Z,1.75
2023-05-14T14:24:34.873Z,6.85
2023-05-14T14:27:03.540Z,33.68
2023-05-14T14:29:32.113Z,17.91
2023-05-14T14:34:49.482Z,1.65
2023-05-14T14:37:21.235Z,1.94
2023-05-14T14:45:10.923Z,2.00
2023-05-14T14:47:40.434Z,2.00
2023-05-14T14:53:13.799Z,2.24
2023-05-14T14:55:42.729Z,1.75
2023-05-14T15:03:58.795Z,1.75
2023-05-14T15:09:22.542Z,2.07
2023-05-14T15:12:04.472Z,1.96
2023-05-14T15:17:49.434Z,2.13
2023-05-14T15:20:16.561Z,2.03
2023-05-14T15:22:49.141Z,1.60
2023-05-14T15:31:07.173Z,1.72
2023-05-14T15:33:39.041Z,1.38
2023-05-14T15:36:16.030Z,1.61
2023-05-14T15:39:18.477Z,1.74
2023-05-14T16:01:42.570Z,1.75
2023-05-14T16:04:12.923Z,2.16
2023-05-14T16:06:47.805Z,1.71
2023-05-14T16:31:32.752Z,1.57
2023-05-14T16:34:04.683Z,1.58
2023-05-14T16:39:22.572Z,1.54
2023-05-14T16:50:13.523Z,1.08
2023-05-14T17:28:52.641Z,1.78
2023-05-14T17:44:12.906Z,2.55
2023-05-14T17:46:41.046Z,2.36
2023-05-14T17:49:08.527Z,2.42
2023-05-14T17:51:37.109Z,2.34
2023-05-14T17:54:06.453Z,2.26
2023-05-14T17:56:35.375Z,2.72
2023-05-14T17:59:02.968Z,3.01
2023-05-14T18:01:31.910Z,3.21
2023-05-14T18:04:00.214Z,2.66
2023-05-14T18:06:27.706Z,3.19
2023-05-14T18:08:55.305Z,3.36
2023-05-14T18:11:22.911Z,2.51
2023-05-14T18:13:49.472Z,2.29
2023-05-14T18:16:16.416Z,2.36
2023-05-14T18:18:43.680Z,2.76
2023-05-14T18:21:11.267Z,2.49
2023-05-14T18:23:39.875Z,2.59
2023-05-14T18:26:07.455Z,2.69
2023-05-14T18:28:35.040Z,2.38
2023-05-14T18:31:03.938Z,2.25
2023-05-14T18:33:32.254Z,2.41
2023-05-14T18:35:59.852Z,2.30
2023-05-14T18:38:27.420Z,2.10
2023-05-14T18:40:55.026Z,1.97
2023-05-14T18:43:22.642Z,1.80
2023-05-14T18:45:52.244Z,1.87
2023-05-14T18:48:22.256Z,1.58
2023-05-14T18:50:50.242Z,1.70
2023-05-14T18:53:23.119Z,1.90
2023-05-14T18:55:50.061Z,2.10
2023-05-14T18:58:19.577Z,2.21
2023-05-14T19:00:47.522Z,2.28
2023-05-14T19:03:15.075Z,2.59
2023-05-14T19:05:42.117Z,2.27
2023-05-14T19:08:10.303Z,2.03
2023-05-14T19:10:36.903Z,1.80
2023-05-14T19:13:04.579Z,1.70
2023-05-14T19:15:33.174Z,1.93
2023-05-14T19:17:59.913Z,1.88
2023-05-14T19:20:27.486Z,1.68
2023-05-14T19:22:55.055Z,2.16
2023-05-14T19:25:22.654Z,2.01
2023-05-14T19:27:49.150Z,2.14
2023-05-14T19:30:17.838Z,1.97
2023-05-14T19:32:46.522Z,2.15
2023-05-14T19:35:14.039Z,2.15
2023-05-14T19:37:42.620Z,2.24
2023-05-14T19:40:09.270Z,2.12
2023-05-14T19:42:36.877Z,2.35
2023-05-14T19:45:04.481Z,2.23
2023-05-14T19:47:32.220Z,2.38
2023-05-14T19:49:59.818Z,4.87
2023-05-14T19:52:26.698Z,3.50
2023-05-14T19:54:55.512Z,2.44
2023-05-14T19:57:22.598Z,2.11
2023-05-14T19:59:50.232Z,1.99
2023-05-14T20:02:17.168Z,2.19
2023-05-14T20:04:44.397Z,1.88
2023-05-14T20:07:12.002Z,1.87
2023-05-14T20:09:39.600Z,1.82
2023-05-14T20:12:07.198Z,1.78
2023-05-14T20:14:34.791Z,2.00
2023-05-14T20:17:02.438Z,1.86
2023-05-14T20:19:29.980Z,1.99
2023-05-14T20:21:58.543Z,1.99
2023-05-14T20:24:25.026Z,1.77
2023-05-14T20:26:52.751Z,2.02
2023-05-14T20:29:20.360Z,2.14
2023-05-14T20:31:46.907Z,2.26
2023-05-14T20:34:15.560Z,2.23
2023-05-14T20:36:43.144Z,2.34
2023-05-14T20:39:10.735Z,2.42
2023-05-14T20:41:37.179Z,2.57
2023-05-14T20:44:03.875Z,2.77
2023-05-14T20:46:31.602Z,2.51
2023-05-14T20:48:59.131Z,2.63
2023-05-14T20:51:26.713Z,2.66
2023-05-14T20:53:53.607Z,2.48
2023-05-14T20:56:20.921Z,2.68
2023-05-14T20:58:48.507Z,2.58
2023-05-14T21:01:17.110Z,2.55
2023-05-14T21:03:44.807Z,2.61
2023-05-14T21:06:12.348Z,2.84
2023-05-14T21:08:40.092Z,2.88
2023-05-14T21:11:07.529Z,3.64
2023-05-14T21:13:35.168Z,3.78
2023-05-14T21:16:02.769Z,3.54
2023-05-14T21:18:31.358Z,3.67
2023-05-14T21:20:57.879Z,3.75
2023-05-14T21:23:24.581Z,3.74
2023-05-14T21:25:54.043Z,3.42
2023-05-14T21:28:20.774Z,2.84
2023-05-14T21:30:48.344Z,2.73
2023-05-14T21:33:15.959Z,2.76
2023-05-14T21:35:44.536Z,2.50
2023-05-14T21:38:12.137Z,2.91
2023-05-14T21:40:39.807Z,3.55
2023-05-14T21:43:08.455Z,3.28
2023-05-14T21:45:35.961Z,3.34
2023-05-14T21:48:02.955Z,3.17
2023-05-14T21:50:30.176Z,3.01
2023-05-14T21:52:57.819Z,2.91
2023-05-14T21:55:25.816Z,2.84
2023-05-14T21:57:52.969Z,2.76
2023-05-14T22:00:20.598Z,2.36
2023-05-14T22:02:48.227Z,2.70
2023-05-14T22:05:15.821Z,3.01
2023-05-14T22:07:43.360Z,2.83
2023-05-14T22:10:11.944Z,2.56
2023-05-14T22:12:39.540Z,2.58
2023-05-14T22:15:07.166Z,2.40
2023-05-14T22:17:34.745Z,2.52
2023-05-14T22:20:02.352Z,2.39
2023-05-14T22:22:29.913Z,2.56
2023-05-14T22:24:58.500Z,2.36
2023-05-14T22:27:26.093Z,2.47
2023-05-14T22:29:53.704Z,2.35
2023-05-14T22:32:22.692Z,2.42
2023-05-14T22:34:49.892Z,2.32
2023-05-14T22:37:16.472Z,2.55
2023-05-14T22:39:44.067Z,2.41
2023-05-14T22:42:11.672Z,2.51
2023-05-14T22:44:38.496Z,2.67
2023-05-14T22:47:07.249Z,2.66
2023-05-14T22:49:35.433Z,2.60
2023-05-14T22:52:04.600Z,2.51
2023-05-14T22:54:31.697Z,2.81
2023-05-14T22:57:00.892Z,2.51
2023-05-14T22:59:28.903Z,2.68
2023-05-14T23:01:56.598Z,2.67
2023-05-14T23:04:24.172Z,2.48
2023-05-14T23:06:51.712Z,2.55
2023-05-14T23:09:19.330Z,2.58
2023-05-14T23:11:46.939Z,2.70
2023-05-14T23:14:14.502Z,2.54
2023-05-14T23:16:42.086Z,2.54
2023-05-14T23:19:11.809Z,2.70
2023-05-14T23:21:42.283Z,2.49
2023-05-14T23:24:09.880Z,2.67
2023-05-14T23:26:37.496Z,2.59
2023-05-14T23:29:05.070Z,2.57
2023-05-14T23:31:32.715Z,2.50
2023-05-14T23:34:00.239Z,2.28
2023-05-14T23:36:27.826Z,2.58
2023-05-14T23:38:54.430Z,2.53
2023-05-14T23:41:22.013Z,2.30
2023-05-14T23:43:49.607Z,2.37
2023-05-14T23:46:17.196Z,2.33
2023-05-14T23:48:45.794Z,2.28
2023-05-14T23:51:13.406Z,2.55
2023-05-14T23:53:40.999Z,2.71
2023-05-14T23:56:08.591Z,2.73
2023-05-14T23:58:37.336Z,2.73
